sensor_id;sensor_type;location;lat;lon;timestamp;pressure;altitude;pressure_sealevel;temperature;humidity
45991;BME280;31721;41.740;-88.000;2023-05-27T00:02:28;99807.03;;;21.72;18.43
45991;BME280;31721;41.740;-88.000;2023-05-27T00:04:56;99809.18;;;21.70;18.42
45991;BME280;31721;41.740;-88.000;2023-05-27T00:07:23;99802.52;;;21.36;18.30
45991;BME280;31721;41.740;-88.000;2023-05-27T00:09:51;99800.60;;;21.42;18.63
45991;BME280;31721;41.740;-88.000;2023-05-27T00:12:19;99802.11;;;21.14;18.57
45991;BME280;31721;41.740;-88.000;2023-05-27T00:14:47;99806.18;;;21.22;18.69
45991;BME280;31721;41.740;-88.000;2023-05-27T00:17:15;99805.72;;;21.07;18.90
45991;BME280;31721;41.740;-88.000;2023-05-27T00:19:44;99805.02;;;20.98;18.94
45991;BME280;31721;41.740;-88.000;2023-05-27T00:22:12;99806.04;;;20.97;18.91
45991;BME280;31721;41.740;-88.000;2023-05-27T00:24:39;99808.69;;;20.94;19.51
45991;BME280;31721;41.740;-88.000;2023-05-27T00:27:07;99811.95;;;20.73;19.10
45991;BME280;31721;41.740;-88.000;2023-05-27T00:29:36;99816.41;;;20.82;19.46
45991;BME280;31721;41.740;-88.000;2023-05-27T00:32:04;99814.32;;;20.77;19.39
45991;BME280;31721;41.740;-88.000;2023-05-27T00:34:32;99813.10;;;20.72;19.57
45991;BME280;31721;41.740;-88.000;2023-05-27T00:37:00;99812.55;;;20.65;19.42
45991;BME280;31721;41.740;-88.000;2023-05-27T00:39:27;99813.77;;;20.50;19.72
45991;BME280;31721;41.740;-88.000;2023-05-27T00:41:55;99810.15;;;20.43;19.89
45991;BME280;31721;41.740;-88.000;2023-05-27T00:44:23;99809.93;;;20.46;20.25
45991;BME280;31721;41.740;-88.000;2023-05-27T00:46:51;99807.13;;;20.42;20.39
45991;BME280;31721;41.740;-88.000;2023-05-27T00:49:19;99806.69;;;20.33;20.33
45991;BME280;31721;41.740;-88.000;2023-05-27T00:51:46;99803.60;;;20.25;20.19
45991;BME280;31721;41.740;-88.000;2023-05-27T00:54:14;99801.09;;;20.25;20.11
45991;BME280;31721;41.740;-88.000;2023-05-27T00:56:42;99806.32;;;20.01;20.28
45991;BME280;31721;41.740;-88.000;2023-05-27T00:59:11;99807.23;;;20.04;20.33
45991;BME280;31721;41.740;-88.000;2023-05-27T01:01:39;99806.86;;;19.89;20.60
45991;BME280;31721;41.740;-88.000;2023-05-27T01:04:08;99809.43;;;19.97;20.44
45991;BME280;31721;41.740;-88.000;2023-05-27T01:06:42;99807.46;;;19.81;20.29
45991;BME280;31721;41.740;-88.000;2023-05-27T01:09:20;99810.91;;;19.72;20.80
45991;BME280;31721;41.740;-88.000;2023-05-27T01:11:57;99810.82;;;19.62;21.10
45991;BME280;31721;41.740;-88.000;2023-05-27T01:14:27;99813.25;;;19.60;21.12
45991;BME280;31721;41.740;-88.000;2023-05-27T01:16:57;99811.36;;;19.43;21.26
45991;BME280;31721;41.740;-88.000;2023-05-27T01:19:30;99814.80;;;19.48;21.09
45991;BME280;31721;41.740;-88.000;2023-05-27T01:22:00;99816.85;;;19.38;20.95
45991;BME280;31721;41.740;-88.000;2023-05-27T01:24:28;99815.79;;;19.25;21.05
45991;BME280;31721;41.740;-88.000;2023-05-27T01:26:56;99817.42;;;19.09;21.03
45991;BME280;31721;41.740;-88.000;2023-05-27T01:29:24;99816.98;;;19.07;21.25
45991;BME280;31721;41.740;-88.000;2023-05-27T01:32:04;99819.17;;;18.96;21.33
45991;BME280;31721;41.740;-88.000;2023-05-27T01:34:38;99816.11;;;18.84;21.25
45991;BME280;31721;41.740;-88.000;2023-05-27T01:37:10;99815.57;;;18.72;21.22
45991;BME280;31721;41.740;-88.000;2023-05-27T01:39:41;99816.77;;;18.70;21.35
45991;BME280;31721;41.740;-88.000;2023-05-27T01:42:10;99815.95;;;18.52;21.43
45991;BME280;31721;41.740;-88.000;2023-05-27T01:44:39;99813.72;;;18.49;21.58
45991;BME280;31721;41.740;-88.000;2023-05-27T01:47:07;99813.00;;;18.42;21.61
45991;BME280;31721;41.740;-88.000;2023-05-27T01:49:35;99812.15;;;18.26;21.72
45991;BME280;31721;41.740;-88.000;2023-05-27T01:52:02;99808.85;;;18.22;21.85
45991;BME280;31721;41.740;-88.000;2023-05-27T01:54:31;99811.07;;;18.11;21.86
45991;BME280;31721;41.740;-88.000;2023-05-27T01:56:58;99812.28;;;17.91;21.77
45991;BME280;31721;41.740;-88.000;2023-05-27T01:59:26;99810.86;;;17.88;21.88
45991;BME280;31721;41.740;-88.000;2023-05-27T02:01:54;99813.26;;;17.76;21.81
45991;BME280;31721;41.740;-88.000;2023-05-27T02:04:22;99812.81;;;17.67;22.01
45991;BME280;31721;41.740;-88.000;2023-05-27T02:06:50;99815.96;;;17.59;21.98
45991;BME280;31721;41.740;-88.000;2023-05-27T02:09:18;99815.75;;;17.47;21.93
45991;BME280;31721;41.740;-88.000;2023-05-27T02:11:46;99816.42;;;17.35;21.87
45991;BME280;31721;41.740;-88.000;2023-05-27T02:14:14;99817.35;;;17.28;22.10
45991;BME280;31721;41.740;-88.000;2023-05-27T02:16:42;99822.61;;;17.35;22.09
45991;BME280;31721;41.740;-88.000;2023-05-27T02:19:10;99824.04;;;17.25;22.27
45991;BME280;31721;41.740;-88.000;2023-05-27T02:21:38;99831.33;;;17.16;22.32
45991;BME280;31721;41.740;-88.000;2023-05-27T02:24:07;99834.98;;;16.98;22.36
45991;BME280;31721;41.740;-88.000;2023-05-27T02:26:35;99842.05;;;16.97;22.49
45991;BME280;31721;41.740;-88.000;2023-05-27T02:29:03;99849.49;;;16.79;22.38
45991;BME280;31721;41.740;-88.000;2023-05-27T02:31:31;99856.45;;;16.76;22.51
45991;BME280;31721;41.740;-88.000;2023-05-27T02:33:59;99862.96;;;16.71;22.69
45991;BME280;31721;41.740;-88.000;2023-05-27T02:36:26;99867.88;;;16.69;22.67
45991;BME280;31721;41.740;-88.000;2023-05-27T02:38:54;99865.10;;;16.48;22.66
45991;BME280;31721;41.740;-88.000;2023-05-27T02:41:21;99864.41;;;16.47;22.88
45991;BME280;31721;41.740;-88.000;2023-05-27T02:43:49;99865.11;;;16.39;22.74
45991;BME280;31721;41.740;-88.000;2023-05-27T02:46:17;99866.96;;;16.39;22.72
45991;BME280;31721;41.740;-88.000;2023-05-27T02:48:45;99867.05;;;16.24;22.78
45991;BME280;31721;41.740;-88.000;2023-05-27T02:51:14;99869.22;;;16.25;23.05
45991;BME280;31721;41.740;-88.000;2023-05-27T02:53:42;99872.22;;;16.19;23.04
45991;BME280;31721;41.740;-88.000;2023-05-27T02:56:10;99872.09;;;16.21;23.11
45991;BME280;31721;41.740;-88.000;2023-05-27T02:58:38;99874.31;;;16.09;23.28
45991;BME280;31721;41.740;-88.000;2023-05-27T03:01:06;99877.38;;;16.10;23.20
45991;BME280;31721;41.740;-88.000;2023-05-27T03:03:34;99875.51;;;15.94;23.26
45991;BME280;31721;41.740;-88.000;2023-05-27T03:06:02;99876.66;;;15.97;23.28
45991;BME280;31721;41.740;-88.000;2023-05-27T03:08:30;99873.68;;;15.82;23.62
45991;BME280;31721;41.740;-88.000;2023-05-27T03:10:58;99875.04;;;15.86;23.95
45991;BME280;31721;41.740;-88.000;2023-05-27T03:13:26;99877.70;;;15.72;23.71
45991;BME280;31721;41.740;-88.000;2023-05-27T03:15:54;99881.05;;;15.73;23.47
45991;BME280;31721;41.740;-88.000;2023-05-27T03:18:22;99881.86;;;15.68;23.48
45991;BME280;31721;41.740;-88.000;2023-05-27T03:20:50;99884.30;;;15.65;23.65
45991;BME280;31721;41.740;-88.000;2023-05-27T03:23:18;99886.44;;;15.61;23.59
45991;BME280;31721;41.740;-88.000;2023-05-27T03:25:46;99885.86;;;15.54;23.52
45991;BME280;31721;41.740;-88.000;2023-05-27T03:28:14;99885.28;;;15.46;23.67
45991;BME280;31721;41.740;-88.000;2023-05-27T03:30:42;99884.07;;;15.56;23.35
45991;BME280;31721;41.740;-88.000;2023-05-27T03:33:10;99878.71;;;15.43;23.21
45991;BME280;31721;41.740;-88.000;2023-05-27T03:35:38;99884.12;;;15.42;22.90
45991;BME280;31721;41.740;-88.000;2023-05-27T03:38:05;99887.71;;;15.35;23.00
45991;BME280;31721;41.740;-88.000;2023-05-27T03:40:33;99888.40;;;15.29;23.07
45991;BME280;31721;41.740;-88.000;2023-05-27T03:43:01;99892.45;;;15.37;23.34
45991;BME280;31721;41.740;-88.000;2023-05-27T03:45:29;99889.77;;;15.36;23.30
45991;BME280;31721;41.740;-88.000;2023-05-27T03:47:57;99889.00;;;15.16;23.06
45991;BME280;31721;41.740;-88.000;2023-05-27T03:50:25;99889.88;;;15.17;23.52
45991;BME280;31721;41.740;-88.000;2023-05-27T03:52:53;99892.78;;;15.06;23.66
45991;BME280;31721;41.740;-88.000;2023-05-27T03:55:21;99893.50;;;15.00;24.13
45991;BME280;31721;41.740;-88.000;2023-05-27T03:57:49;99894.62;;;15.11;23.56
45991;BME280;31721;41.740;-88.000;2023-05-27T04:00:18;99890.68;;;14.92;23.63
45991;BME280;31721;41.740;-88.000;2023-05-27T04:02:45;99887.52;;;14.91;23.73
45991;BME280;31721;41.740;-88.000;2023-05-27T04:05:13;99887.20;;;14.91;23.49
45991;BME280;31721;41.740;-88.000;2023-05-27T04:07:41;99887.53;;;14.88;23.76
45991;BME280;31721;41.740;-88.000;2023-05-27T04:10:10;99889.99;;;14.75;23.88
45991;BME280;31721;41.740;-88.000;2023-05-27T04:12:39;99887.86;;;14.73;23.66
45991;BME280;31721;41.740;-88.000;2023-05-27T04:15:08;99888.16;;;14.71;23.79
45991;BME280;31721;41.740;-88.000;2023-05-27T04:17:36;99883.42;;;14.60;23.90
45991;BME280;31721;41.740;-88.000;2023-05-27T04:20:05;99880.10;;;14.65;23.83
45991;BME280;31721;41.740;-88.000;2023-05-27T04:22:33;99879.15;;;14.50;24.17
45991;BME280;31721;41.740;-88.000;2023-05-27T04:25:01;99876.65;;;14.49;24.43
45991;BME280;31721;41.740;-88.000;2023-05-27T04:27:29;99878.33;;;14.50;24.07
45991;BME280;31721;41.740;-88.000;2023-05-27T04:29:57;99875.22;;;14.44;24.02
45991;BME280;31721;41.740;-88.000;2023-05-27T04:32:25;99873.19;;;14.34;23.90
45991;BME280;31721;41.740;-88.000;2023-05-27T04:34:53;99872.58;;;14.19;24.07
45991;BME280;31721;41.740;-88.000;2023-05-27T04:37:21;99875.06;;;14.13;23.99
45991;BME280;31721;41.740;-88.000;2023-05-27T04:39:48;99873.54;;;14.03;24.23
45991;BME280;31721;41.740;-88.000;2023-05-27T04:42:17;99873.32;;;13.94;24.17
45991;BME280;31721;41.740;-88.000;2023-05-27T04:44:45;99871.71;;;13.99;24.54
45991;BME280;31721;41.740;-88.000;2023-05-27T04:47:13;99874.35;;;14.03;24.43
45991;BME280;31721;41.740;-88.000;2023-05-27T04:49:41;99868.57;;;13.99;24.63
45991;BME280;31721;41.740;-88.000;2023-05-27T04:52:09;99867.38;;;13.90;24.31
45991;BME280;31721;41.740;-88.000;2023-05-27T04:54:37;99864.62;;;13.79;24.58
45991;BME280;31721;41.740;-88.000;2023-05-27T04:57:05;99862.15;;;13.70;24.46
45991;BME280;31721;41.740;-88.000;2023-05-27T04:59:33;99864.20;;;13.66;24.67
45991;BME280;31721;41.740;-88.000;2023-05-27T05:02:01;99865.95;;;13.69;24.61
45991;BME280;31721;41.740;-88.000;2023-05-27T05:04:29;99869.63;;;13.59;24.38
45991;BME280;31721;41.740;-88.000;2023-05-27T05:06:57;99868.98;;;13.51;24.46
45991;BME280;31721;41.740;-88.000;2023-05-27T05:09:25;99869.05;;;13.38;24.55
45991;BME280;31721;41.740;-88.000;2023-05-27T05:11:53;99867.79;;;13.40;24.74
45991;BME280;31721;41.740;-88.000;2023-05-27T05:14:21;99873.92;;;13.36;24.78
45991;BME280;31721;41.740;-88.000;2023-05-27T05:16:50;99879.13;;;13.34;24.81
45991;BME280;31721;41.740;-88.000;2023-05-27T05:19:18;99881.48;;;13.27;24.88
45991;BME280;31721;41.740;-88.000;2023-05-27T05:21:46;99883.55;;;13.18;24.84
45991;BME280;31721;41.740;-88.000;2023-05-27T05:24:14;99884.01;;;13.10;24.87
45991;BME280;31721;41.740;-88.000;2023-05-27T05:26:42;99881.59;;;13.04;25.00
45991;BME280;31721;41.740;-88.000;2023-05-27T05:29:09;99881.88;;;13.04;25.84
45991;BME280;31721;41.740;-88.000;2023-05-27T05:31:37;99882.47;;;12.97;25.60
45991;BME280;31721;41.740;-88.000;2023-05-27T05:34:05;99878.16;;;12.99;25.65
45991;BME280;31721;41.740;-88.000;2023-05-27T05:36:33;99877.57;;;12.78;25.73
45991;BME280;31721;41.740;-88.000;2023-05-27T05:39:01;99876.48;;;12.76;25.72
45991;BME280;31721;41.740;-88.000;2023-05-27T05:41:29;99884.44;;;12.70;25.69
45991;BME280;31721;41.740;-88.000;2023-05-27T05:43:57;99884.99;;;12.83;25.94
45991;BME280;31721;41.740;-88.000;2023-05-27T05:46:25;99879.20;;;12.56;25.79
45991;BME280;31721;41.740;-88.000;2023-05-27T05:48:54;99877.40;;;12.65;26.10
45991;BME280;31721;41.740;-88.000;2023-05-27T05:51:22;99877.76;;;12.41;26.76
45991;BME280;31721;41.740;-88.000;2023-05-27T05:53:50;99874.74;;;12.39;26.59
45991;BME280;31721;41.740;-88.000;2023-05-27T05:56:18;99872.51;;;12.36;26.54
45991;BME280;31721;41.740;-88.000;2023-05-27T05:58:46;99869.76;;;12.42;26.72
45991;BME280;31721;41.740;-88.000;2023-05-27T06:01:15;99872.26;;;12.47;26.65
45991;BME280;31721;41.740;-88.000;2023-05-27T06:03:42;99873.22;;;12.44;26.62
45991;BME280;31721;41.740;-88.000;2023-05-27T06:06:10;99873.21;;;12.39;26.41
45991;BME280;31721;41.740;-88.000;2023-05-27T06:08:39;99874.91;;;12.16;26.59
45991;BME280;31721;41.740;-88.000;2023-05-27T06:11:07;99872.09;;;12.26;26.87
45991;BME280;31721;41.740;-88.000;2023-05-27T06:13:35;99874.27;;;12.19;26.96
45991;BME280;31721;41.740;-88.000;2023-05-27T06:16:03;99869.93;;;12.16;26.93
45991;BME280;31721;41.740;-88.000;2023-05-27T06:18:31;99866.40;;;12.05;26.98
45991;BME280;31721;41.740;-88.000;2023-05-27T06:20:59;99864.33;;;12.10;27.19
45991;BME280;31721;41.740;-88.000;2023-05-27T06:23:27;99865.96;;;12.05;27.41
45991;BME280;31721;41.740;-88.000;2023-05-27T06:25:56;99866.64;;;12.02;27.51
45991;BME280;31721;41.740;-88.000;2023-05-27T06:28:24;99866.24;;;12.00;27.37
45991;BME280;31721;41.740;-88.000;2023-05-27T06:30:52;99865.60;;;11.86;27.48
45991;BME280;31721;41.740;-88.000;2023-05-27T06:33:20;99863.63;;;11.89;27.63
45991;BME280;31721;41.740;-88.000;2023-05-27T06:35:48;99860.62;;;11.84;27.89
45991;BME280;31721;41.740;-88.000;2023-05-27T06:38:16;99858.49;;;11.79;28.03
45991;BME280;31721;41.740;-88.000;2023-05-27T06:40:44;99860.44;;;11.76;28.22
45991;BME280;31721;41.740;-88.000;2023-05-27T06:43:11;99858.04;;;11.81;28.34
45991;BME280;31721;41.740;-88.000;2023-05-27T06:45:39;99855.11;;;11.72;28.45
45991;BME280;31721;41.740;-88.000;2023-05-27T06:48:07;99857.34;;;11.76;28.85
45991;BME280;31721;41.740;-88.000;2023-05-27T06:50:35;99855.66;;;11.69;28.92
45991;BME280;31721;41.740;-88.000;2023-05-27T06:53:02;99853.63;;;11.69;29.10
45991;BME280;31721;41.740;-88.000;2023-05-27T06:55:31;99853.67;;;11.71;29.12
45991;BME280;31721;41.740;-88.000;2023-05-27T06:57:58;99855.95;;;11.78;29.06
45991;BME280;31721;41.740;-88.000;2023-05-27T07:00:26;99859.30;;;11.77;29.35
45991;BME280;31721;41.740;-88.000;2023-05-27T07:02:54;99862.66;;;11.75;29.35
45991;BME280;31721;41.740;-88.000;2023-05-27T07:05:22;99864.19;;;11.73;29.66
45991;BME280;31721;41.740;-88.000;2023-05-27T07:07:50;99861.30;;;11.58;29.49
45991;BME280;31721;41.740;-88.000;2023-05-27T07:10:18;99859.23;;;11.62;29.67
45991;BME280;31721;41.740;-88.000;2023-05-27T07:12:45;99853.03;;;11.59;29.77
45991;BME280;31721;41.740;-88.000;2023-05-27T07:15:13;99850.31;;;11.45;29.53
45991;BME280;31721;41.740;-88.000;2023-05-27T07:17:41;99849.92;;;11.50;30.01
45991;BME280;31721;41.740;-88.000;2023-05-27T07:20:10;99847.81;;;11.57;30.19
45991;BME280;31721;41.740;-88.000;2023-05-27T07:22:38;99850.29;;;11.58;30.46
45991;BME280;31721;41.740;-88.000;2023-05-27T07:25:07;99849.85;;;11.48;30.73
45991;BME280;31721;41.740;-88.000;2023-05-27T07:27:35;99848.54;;;11.42;30.66
45991;BME280;31721;41.740;-88.000;2023-05-27T07:30:04;99840.73;;;11.33;30.68
45991;BME280;31721;41.740;-88.000;2023-05-27T07:32:31;99836.92;;;11.29;30.64
45991;BME280;31721;41.740;-88.000;2023-05-27T07:34:59;99839.87;;;11.31;30.70
45991;BME280;31721;41.740;-88.000;2023-05-27T07:37:27;99844.73;;;11.29;31.05
45991;BME280;31721;41.740;-88.000;2023-05-27T07:39:54;99849.39;;;11.27;31.18
45991;BME280;31721;41.740;-88.000;2023-05-27T07:42:22;99845.79;;;11.25;31.21
45991;BME280;31721;41.740;-88.000;2023-05-27T07:44:50;99844.55;;;11.22;31.36
45991;BME280;31721;41.740;-88.000;2023-05-27T07:47:18;99845.95;;;11.17;31.51
45991;BME280;31721;41.740;-88.000;2023-05-27T07:49:48;99843.21;;;11.27;31.69
45991;BME280;31721;41.740;-88.000;2023-05-27T07:52:15;99843.89;;;11.16;31.72
45991;BME280;31721;41.740;-88.000;2023-05-27T07:54:44;99843.11;;;11.22;31.94
45991;BME280;31721;41.740;-88.000;2023-05-27T07:57:11;99842.13;;;11.12;32.00
45991;BME280;31721;41.740;-88.000;2023-05-27T07:59:38;99844.35;;;11.12;32.10
45991;BME280;31721;41.740;-88.000;2023-05-27T08:02:06;99850.80;;;11.18;32.11
45991;BME280;31721;41.740;-88.000;2023-05-27T08:04:34;99850.29;;;11.14;32.23
45991;BME280;31721;41.740;-88.000;2023-05-27T08:07:01;99848.54;;;11.08;32.79
45991;BME280;31721;41.740;-88.000;2023-05-27T08:09:29;99848.59;;;11.16;32.71
45991;BME280;31721;41.740;-88.000;2023-05-27T08:11:57;99850.97;;;11.14;32.89
45991;BME280;31721;41.740;-88.000;2023-05-27T08:14:24;99847.60;;;11.01;32.72
45991;BME280;31721;41.740;-88.000;2023-05-27T08:16:51;99849.01;;;11.04;32.96
45991;BME280;31721;41.740;-88.000;2023-05-27T08:19:19;99844.93;;;11.01;33.01
45991;BME280;31721;41.740;-88.000;2023-05-27T08:21:47;99842.45;;;10.99;33.39
45991;BME280;31721;41.740;-88.000;2023-05-27T08:24:15;99841.25;;;10.95;33.49
45991;BME280;31721;41.740;-88.000;2023-05-27T08:26:44;99841.99;;;10.92;33.41
45991;BME280;31721;41.740;-88.000;2023-05-27T08:29:12;99844.42;;;10.82;33.60
45991;BME280;31721;41.740;-88.000;2023-05-27T08:31:40;99842.31;;;10.89;33.83
45991;BME280;31721;41.740;-88.000;2023-05-27T08:34:08;99842.51;;;10.99;33.88
45991;BME280;31721;41.740;-88.000;2023-05-27T08:36:35;99842.84;;;10.81;34.01
45991;BME280;31721;41.740;-88.000;2023-05-27T08:39:02;99845.31;;;10.80;34.28
45991;BME280;31721;41.740;-88.000;2023-05-27T08:41:31;99849.63;;;10.75;33.91
45991;BME280;31721;41.740;-88.000;2023-05-27T08:43:59;99848.35;;;10.71;34.38
45991;BME280;31721;41.740;-88.000;2023-05-27T08:46:27;99852.22;;;10.70;34.55
45991;BME280;31721;41.740;-88.000;2023-05-27T08:48:55;99850.40;;;10.67;34.71
45991;BME280;31721;41.740;-88.000;2023-05-27T08:51:23;99852.18;;;10.60;34.69
45991;BME280;31721;41.740;-88.000;2023-05-27T08:53:51;99853.00;;;10.62;34.93
45991;BME280;31721;41.740;-88.000;2023-05-27T08:56:20;99856.69;;;10.62;35.00
45991;BME280;31721;41.740;-88.000;2023-05-27T08:58:49;99858.50;;;10.59;35.08
45991;BME280;31721;41.740;-88.000;2023-05-27T09:01:18;99856.22;;;10.57;35.11
45991;BME280;31721;41.740;-88.000;2023-05-27T09:03:46;99855.85;;;10.50;34.96
45991;BME280;31721;41.740;-88.000;2023-05-27T09:06:13;99857.41;;;10.51;35.37
45991;BME280;31721;41.740;-88.000;2023-05-27T09:08:40;99859.59;;;10.63;35.52
45991;BME280;31721;41.740;-88.000;2023-05-27T09:11:08;99863.03;;;10.50;35.73
45991;BME280;31721;41.740;-88.000;2023-05-27T09:13:46;99862.95;;;10.46;35.69
45991;BME280;31721;41.740;-88.000;2023-05-27T09:16:14;99864.97;;;10.45;35.93
45991;BME280;31721;41.740;-88.000;2023-05-27T09:18:42;99863.73;;;10.58;36.02
45991;BME280;31721;41.740;-88.000;2023-05-27T09:21:10;99864.71;;;10.43;36.00
45991;BME280;31721;41.740;-88.000;2023-05-27T09:23:38;99864.27;;;10.39;36.09
45991;BME280;31721;41.740;-88.000;2023-05-27T09:26:08;99862.93;;;10.39;36.28
45991;BME280;31721;41.740;-88.000;2023-05-27T09:28:37;99864.52;;;10.54;36.62
45991;BME280;31721;41.740;-88.000;2023-05-27T09:31:06;99867.02;;;10.33;36.49
45991;BME280;31721;41.740;-88.000;2023-05-27T09:33:36;99868.65;;;10.31;36.70
45991;BME280;31721;41.740;-88.000;2023-05-27T09:36:06;99870.03;;;10.30;36.93
45991;BME280;31721;41.740;-88.000;2023-05-27T09:38:35;99868.51;;;10.33;36.81
45991;BME280;31721;41.740;-88.000;2023-05-27T09:41:03;99864.29;;;10.35;37.02
45991;BME280;31721;41.740;-88.000;2023-05-27T09:43:31;99863.87;;;10.20;37.18
45991;BME280;31721;41.740;-88.000;2023-05-27T09:46:00;99863.93;;;10.22;37.17
45991;BME280;31721;41.740;-88.000;2023-05-27T09:48:30;99865.04;;;10.25;37.18
45991;BME280;31721;41.740;-88.000;2023-05-27T09:50:59;99867.54;;;10.25;37.61
45991;BME280;31721;41.740;-88.000;2023-05-27T09:53:27;99872.73;;;10.21;37.59
45991;BME280;31721;41.740;-88.000;2023-05-27T09:55:56;99873.13;;;10.16;37.59
45991;BME280;31721;41.740;-88.000;2023-05-27T09:58:25;99876.67;;;10.08;37.79
45991;BME280;31721;41.740;-88.000;2023-05-27T10:00:53;99876.13;;;10.02;38.00
45991;BME280;31721;41.740;-88.000;2023-05-27T10:03:23;99882.35;;;10.00;38.02
45991;BME280;31721;41.740;-88.000;2023-05-27T10:05:51;99884.51;;;10.07;38.08
45991;BME280;31721;41.740;-88.000;2023-05-27T10:08:19;99890.36;;;10.12;38.13
45991;BME280;31721;41.740;-88.000;2023-05-27T10:10:46;99893.14;;;10.11;38.22
45991;BME280;31721;41.740;-88.000;2023-05-27T10:13:16;99891.79;;;10.00;38.27
45991;BME280;31721;41.740;-88.000;2023-05-27T10:15:47;99894.36;;;9.98;38.56
45991;BME280;31721;41.740;-88.000;2023-05-27T10:18:27;99898.11;;;9.87;38.43
45991;BME280;31721;41.740;-88.000;2023-05-27T10:20:57;99902.18;;;10.02;38.48
45991;BME280;31721;41.740;-88.000;2023-05-27T10:23:27;99905.31;;;10.02;38.90
45991;BME280;31721;41.740;-88.000;2023-05-27T10:26:00;99906.94;;;10.01;38.91
45991;BME280;31721;41.740;-88.000;2023-05-27T10:28:29;99908.45;;;9.92;38.78
45991;BME280;31721;41.740;-88.000;2023-05-27T10:31:04;99908.40;;;9.92;39.11
45991;BME280;31721;41.740;-88.000;2023-05-27T10:33:35;99913.42;;;9.92;39.09
45991;BME280;31721;41.740;-88.000;2023-05-27T10:36:06;99916.26;;;10.02;39.13
45991;BME280;31721;41.740;-88.000;2023-05-27T10:38:35;99918.87;;;9.97;39.25
45991;BME280;31721;41.740;-88.000;2023-05-27T10:41:05;99924.23;;;10.00;39.19
45991;BME280;31721;41.740;-88.000;2023-05-27T10:43:33;99930.00;;;9.98;39.44
45991;BME280;31721;41.740;-88.000;2023-05-27T10:46:03;99932.14;;;9.91;39.49
45991;BME280;31721;41.740;-88.000;2023-05-27T10:48:32;99933.54;;;10.05;39.74
45991;BME280;31721;41.740;-88.000;2023-05-27T10:51:00;99936.32;;;9.96;39.79
45991;BME280;31721;41.740;-88.000;2023-05-27T10:53:28;99938.44;;;10.03;39.94
45991;BME280;31721;41.740;-88.000;2023-05-27T10:55:59;99942.03;;;9.97;39.91
45991;BME280;31721;41.740;-88.000;2023-05-27T10:58:27;99947.05;;;9.97;40.16
45991;BME280;31721;41.740;-88.000;2023-05-27T11:00:56;99955.47;;;9.99;40.11
45991;BME280;31721;41.740;-88.000;2023-05-27T11:03:26;99956.34;;;9.84;39.65
45991;BME280;31721;41.740;-88.000;2023-05-27T11:05:59;99956.71;;;9.81;40.66
45991;BME280;31721;41.740;-88.000;2023-05-27T11:08:27;99959.25;;;9.83;40.77
45991;BME280;31721;41.740;-88.000;2023-05-27T11:11:00;99960.74;;;9.80;41.15
45991;BME280;31721;41.740;-88.000;2023-05-27T11:13:32;99962.32;;;9.79;41.10
45991;BME280;31721;41.740;-88.000;2023-05-27T11:16:01;99963.30;;;9.84;41.26
45991;BME280;31721;41.740;-88.000;2023-05-27T11:18:37;99966.10;;;9.79;41.61
45991;BME280;31721;41.740;-88.000;2023-05-27T11:21:07;99967.71;;;9.84;41.81
45991;BME280;31721;41.740;-88.000;2023-05-27T11:23:37;99972.77;;;9.98;41.84
45991;BME280;31721;41.740;-88.000;2023-05-27T11:26:06;99975.94;;;9.89;41.79
45991;BME280;31721;41.740;-88.000;2023-05-27T11:28:38;99981.75;;;9.96;41.98
45991;BME280;31721;41.740;-88.000;2023-05-27T11:31:07;99985.12;;;10.00;42.19
45991;BME280;31721;41.740;-88.000;2023-05-27T11:33:35;99984.32;;;9.96;42.17
45991;BME280;31721;41.740;-88.000;2023-05-27T11:36:11;99981.88;;;10.14;42.22
45991;BME280;31721;41.740;-88.000;2023-05-27T11:38:48;99983.70;;;10.23;42.66
45991;BME280;31721;41.740;-88.000;2023-05-27T11:41:16;99987.89;;;10.26;42.74
45991;BME280;31721;41.740;-88.000;2023-05-27T11:43:49;99991.28;;;10.38;42.64
45991;BME280;31721;41.740;-88.000;2023-05-27T11:46:17;99993.13;;;10.60;42.60
45991;BME280;31721;41.740;-88.000;2023-05-27T11:48:45;99993.32;;;10.71;42.48
45991;BME280;31721;41.740;-88.000;2023-05-27T11:51:13;99992.59;;;10.76;42.50
45991;BME280;31721;41.740;-88.000;2023-05-27T11:53:44;99991.49;;;10.81;42.50
45991;BME280;31721;41.740;-88.000;2023-05-27T11:56:13;99992.47;;;10.93;42.62
45991;BME280;31721;41.740;-88.000;2023-05-27T11:58:41;99993.71;;;11.05;42.73
45991;BME280;31721;41.740;-88.000;2023-05-27T12:01:09;99996.10;;;11.16;42.79
45991;BME280;31721;41.740;-88.000;2023-05-27T12:03:37;99995.52;;;11.34;42.85
45991;BME280;31721;41.740;-88.000;2023-05-27T12:06:05;99997.11;;;11.35;42.90
45991;BME280;31721;41.740;-88.000;2023-05-27T12:08:33;100002.26;;;11.63;43.08
45991;BME280;31721;41.740;-88.000;2023-05-27T12:11:02;100003.77;;;11.73;43.32
45991;BME280;31721;41.740;-88.000;2023-05-27T12:13:30;100003.98;;;11.92;43.30
45991;BME280;31721;41.740;-88.000;2023-05-27T12:15:58;100000.45;;;12.12;43.12
45991;BME280;31721;41.740;-88.000;2023-05-27T12:18:26;99997.10;;;12.24;43.05
45991;BME280;31721;41.740;-88.000;2023-05-27T12:20:54;99996.18;;;12.45;43.09
45991;BME280;31721;41.740;-88.000;2023-05-27T12:23:22;99995.91;;;12.66;43.01
45991;BME280;31721;41.740;-88.000;2023-05-27T12:25:50;99990.52;;;12.80;43.24
45991;BME280;31721;41.740;-88.000;2023-05-27T12:28:18;99993.79;;;13.04;43.11
45991;BME280;31721;41.740;-88.000;2023-05-27T12:30:46;99994.17;;;13.26;41.20
45991;BME280;31721;41.740;-88.000;2023-05-27T12:33:14;99992.48;;;13.44;41.02
45991;BME280;31721;41.740;-88.000;2023-05-27T12:35:42;99984.29;;;13.69;40.49
45991;BME280;31721;41.740;-88.000;2023-05-27T12:38:10;99984.65;;;13.79;40.70
45991;BME280;31721;41.740;-88.000;2023-05-27T12:40:38;99986.68;;;14.08;40.15
45991;BME280;31721;41.740;-88.000;2023-05-27T12:43:06;99987.91;;;14.44;39.78
45991;BME280;31721;41.740;-88.000;2023-05-27T12:45:34;99989.40;;;14.53;39.99
45991;BME280;31721;41.740;-88.000;2023-05-27T12:48:02;99985.90;;;14.98;38.92